Time;durP1;ratioP1;P1;durP2;ratioP2;P2;SDS_P1;SDS_P2;PMS_P1;PMS_P2;Temp;Humidity;BMP_temperature;BMP_pressure;BME280_temperature;BME280_humidity;BME280_pressure;Samples;Min_cycle;Max_cycle;Signal;HPM_P1;HPM_P2
2022/07/18 00:00:10;;;;;;;3.17;1.30;;;20.30;48.00;;;;;;5008667;28;20502;-47
2022/07/18 00:02:41;;;;;;;3.00;1.27;;;20.30;48.20;;;;;;5004526;28;20071;-46
2022/07/18 00:05:10;;;;;;;2.97;1.27;;;20.30;48.50;;;;;;5009608;28;20046;-47
2022/07/18 00:07:41;;;;;;;3.38;1.40;;;20.20;48.10;;;;;;5008063;28;20052;-48
2022/07/18 00:10:08;;;;;;;2.30;1.10;;;20.20;48.30;;;;;;5008982;28;20116;-49
2022/07/18 00:12:40;;;;;;;3.10;1.80;;;20.20;48.30;;;;;;5009559;28;20528;-51
2022/07/18 00:15:12;;;;;;;2.13;1.42;;;20.10;48.60;;;;;;5010663;28;20050;-50
2022/07/18 00:17:39;;;;;;;1.73;1.42;;;20.10;48.50;;;;;;5005664;28;20084;-48
2022/07/18 00:20:09;;;;;;;1.95;1.35;;;20.10;48.60;;;;;;4987351;28;20073;-50
2022/07/18 00:22:36;;;;;;;1.98;1.50;;;20.00;48.90;;;;;;5009699;28;20124;-51
2022/07/18 00:25:04;;;;;;;2.42;1.38;;;20.00;48.70;;;;;;5010587;28;20049;-48
2022/07/18 00:27:33;;;;;;;4.53;1.60;;;20.00;48.90;;;;;;5008356;28;20053;-50
2022/07/18 00:30:00;;;;;;;1.88;1.27;;;20.00;48.90;;;;;;5007280;28;20038;-50
2022/07/18 00:32:31;;;;;;;1.45;1.35;;;19.90;48.90;;;;;;5009041;28;20638;-47
2022/07/18 00:34:57;;;;;;;1.67;1.58;;;19.90;49.40;;;;;;5009970;28;20038;-49
2022/07/18 00:37:31;;;;;;;1.25;1.13;;;19.80;49.00;;;;;;5004534;28;20053;-51
2022/07/18 00:39:59;;;;;;;2.65;1.27;;;19.80;49.10;;;;;;5008893;28;20044;-50
2022/07/18 00:42:26;;;;;;;1.40;1.30;;;19.80;49.10;;;;;;5009467;28;20095;-49
2022/07/18 00:44:56;;;;;;;1.70;1.35;;;19.80;49.00;;;;;;5009362;28;20049;-47
2022/07/18 00:47:25;;;;;;;1.85;1.38;;;19.70;49.40;;;;;;5008793;28;20044;-48
2022/07/18 00:49:54;;;;;;;3.15;1.50;;;19.70;49.30;;;;;;5013903;28;20096;-51
2022/07/18 00:52:23;;;;;;;1.52;1.33;;;19.60;49.30;;;;;;4993854;28;20045;-46
2022/07/18 00:54:52;;;;;;;2.28;1.73;;;19.60;49.40;;;;;;4994439;28;20038;-48
2022/07/18 00:57:18;;;;;;;2.08;1.98;;;19.60;49.70;;;;;;5002740;28;20042;-51
2022/07/18 01:02:37;;;;;;;1.60;1.27;;;19.50;49.90;;;;;;5013373;28;20042;-51
2022/07/18 01:05:09;;;;;;;1.88;1.23;;;19.40;50.50;;;;;;5010816;28;20057;-50
2022/07/18 01:07:36;;;;;;;3.97;1.42;;;19.50;49.90;;;;;;5012683;28;20049;-48
2022/07/18 01:10:07;;;;;;;1.27;1.17;;;19.40;49.90;;;;;;5012589;28;20041;-47
2022/07/18 01:12:37;;;;;;;1.75;1.65;;;19.40;49.80;;;;;;5013124;28;20095;-46
2022/07/18 01:15:05;;;;;;;1.98;1.50;;;19.30;49.80;;;;;;5007606;28;20103;-47
2022/07/18 01:17:35;;;;;;;2.75;1.30;;;19.30;50.10;;;;;;5008533;28;20034;-48
2022/07/18 01:20:04;;;;;;;3.67;2.90;;;19.20;50.00;;;;;;5014050;28;20469;-48
2022/07/18 01:22:30;;;;;;;1.50;1.25;;;19.20;50.20;;;;;;5012176;28;20100;-50
2022/07/18 01:24:57;;;;;;;2.72;1.63;;;19.20;50.20;;;;;;5010278;28;20061;-48
2022/07/18 01:27:24;;;;;;;3.90;1.38;;;19.10;50.20;;;;;;5005694;28;20088;-48
2022/07/18 01:29:55;;;;;;;1.90;1.35;;;19.10;50.30;;;;;;5013577;28;20045;-47
2022/07/18 01:32:22;;;;;;;2.70;1.20;;;19.10;50.40;;;;;;5013303;28;20581;-50
2022/07/18 01:34:50;;;;;;;2.30;1.50;;;19.10;50.50;;;;;;5006206;28;20108;-49
2022/07/18 01:37:17;;;;;;;1.73;1.60;;;19.00;50.50;;;;;;5012054;28;20502;-47
2022/07/18 01:39:45;;;;;;;2.15;1.25;;;19.00;50.50;;;;;;5013490;28;20046;-48
2022/07/18 01:42:13;;;;;;;1.67;1.50;;;18.90;50.70;;;;;;5012290;28;20042;-49
2022/07/18 01:44:41;;;;;;;2.17;1.40;;;18.90;50.80;;;;;;5010556;28;20526;-46
2022/07/18 01:47:11;;;;;;;2.38;1.67;;;18.90;50.70;;;;;;5011648;28;20046;-49
2022/07/18 01:49:41;;;;;;;2.08;1.30;;;18.80;51.10;;;;;;5013276;28;20084;-48
2022/07/18 01:52:09;;;;;;;2.17;1.52;;;18.80;50.80;;;;;;5008630;28;20388;-47
2022/07/18 01:54:39;;;;;;;1.35;1.20;;;18.80;51.00;;;;;;5006857;28;20391;-47
2022/07/18 01:57:09;;;;;;;5.70;1.92;;;18.70;51.20;;;;;;5011155;28;20825;-47
2022/07/18 01:59:40;;;;;;;2.03;1.70;;;18.70;51.00;;;;;;5013375;28;20069;-46
2022/07/18 02:02:08;;;;;;;2.08;1.38;;;18.70;51.10;;;;;;5012106;28;20042;-46
2022/07/18 02:07:23;;;;;;;2.25;1.50;;;18.60;51.10;;;;;;4994251;28;20046;-48
2022/07/18 02:09:50;;;;;;;2.97;2.22;;;18.60;51.30;;;;;;5012892;28;20050;-47
2022/07/18 02:12:19;;;;;;;1.35;1.25;;;18.60;51.00;;;;;;5006282;28;20389;-48
2022/07/18 02:14:48;;;;;;;1.70;1.30;;;18.60;51.10;;;;;;5011008;28;20076;-50
2022/07/18 02:17:18;;;;;;;4.97;1.27;;;18.50;51.10;;;;;;5011731;28;20081;-45
2022/07/18 02:19:56;;;;;;;3.92;1.80;;;18.50;51.30;;;;;;4995242;28;20517;-47
2022/07/18 02:22:26;;;;;;;1.52;1.20;;;18.50;51.50;;;;;;5005822;28;20038;-47
2022/07/18 02:24:59;;;;;;;2.55;1.85;;;18.40;51.20;;;;;;5011990;28;20045;-45
2022/07/18 02:27:26;;;;;;;2.58;1.40;;;18.40;51.30;;;;;;5011552;28;20161;-51
2022/07/18 02:29:52;;;;;;;1.50;1.40;;;18.30;51.30;;;;;;5007639;28;20049;-46
2022/07/18 02:32:19;;;;;;;1.60;1.40;;;18.30;51.50;;;;;;5006365;28;20038;-47
2022/07/18 02:34:50;;;;;;;3.30;1.15;;;18.30;51.60;;;;;;5011724;28;20091;-46
2022/07/18 02:37:22;;;;;;;1.52;1.42;;;18.30;52.00;;;;;;5011594;28;20040;-47
2022/07/18 02:39:51;;;;;;;2.20;1.50;;;18.20;51.70;;;;;;5009530;28;20037;-45
2022/07/18 02:42:17;;;;;;;2.72;1.83;;;18.20;51.60;;;;;;5011543;28;20096;-47
2022/07/18 02:44:45;;;;;;;5.20;2.30;;;18.20;51.80;;;;;;5012061;28;20092;-47
2022/07/18 02:47:22;;;;;;;1.65;1.50;;;18.20;51.80;;;;;;5009220;28;20057;-48
2022/07/18 02:49:51;;;;;;;1.38;1.27;;;18.10;51.70;;;;;;5004735;28;20733;-48
2022/07/18 02:52:19;;;;;;;1.58;1.30;;;18.10;51.70;;;;;;5011251;28;20038;-48
2022/07/18 02:54:55;;;;;;;3.72;1.38;;;18.10;51.90;;;;;;5006245;28;20046;-48
2022/07/18 02:57:23;;;;;;;1.73;1.42;;;18.00;52.10;;;;;;5007316;28;20036;-48
2022/07/18 02:59:50;;;;;;;1.83;1.58;;;18.00;51.80;;;;;;5011679;28;20034;-47
2022/07/18 03:02:19;;;;;;;1.85;1.70;;;18.00;51.70;;;;;;5011059;28;20111;-49
2022/07/18 03:04:46;;;;;;;2.20;1.73;;;18.00;51.90;;;;;;5009016;28;20045;-48
2022/07/18 03:07:14;;;;;;;4.55;1.20;;;17.90;51.80;;;;;;5013435;28;20081;-44
2022/07/18 03:09:41;;;;;;;2.15;1.58;;;17.90;51.90;;;;;;5008486;28;20092;-48
2022/07/18 03:12:08;;;;;;;1.65;1.50;;;17.90;52.00;;;;;;5009939;28;20042;-48
2022/07/18 03:14:38;;;;;;;2.40;1.70;;;17.90;52.10;;;;;;5008100;28;20057;-46
2022/07/18 03:17:07;;;;;;;2.97;1.50;;;17.80;52.10;;;;;;5006053;28;20034;-44
2022/07/18 03:19:34;;;;;;;3.65;1.60;;;17.90;52.20;;;;;;5011705;28;20491;-45
2022/07/18 03:22:04;;;;;;;1.92;1.48;;;17.70;52.30;;;;;;5023430;28;20104;-46
2022/07/18 03:24:35;;;;;;;2.08;1.33;;;17.70;52.30;;;;;;5009872;28;20621;-47
2022/07/18 03:27:01;;;;;;;2.13;1.63;;;17.70;52.40;;;;;;5006773;28;20046;-48
2022/07/18 03:29:30;;;;;;;1.80;1.50;;;17.70;52.40;;;;;;5011849;28;20061;-47
2022/07/18 03:31:57;;;;;;;2.08;1.75;;;17.60;52.70;;;;;;5008048;28;20108;-51
2022/07/18 03:34:26;;;;;;;3.70;1.67;;;17.60;52.50;;;;;;5009929;28;20038;-47
2022/07/18 03:36:53;;;;;;;4.78;1.80;;;17.60;52.70;;;;;;5009961;28;20045;-47
2022/07/18 03:39:27;;;;;;;4.10;1.60;;;17.60;52.80;;;;;;5003911;28;20038;-51
2022/07/18 03:41:58;;;;;;;2.63;2.10;;;17.60;52.90;;;;;;5009660;28;20422;-50
2022/07/18 03:44:25;;;;;;;2.15;1.75;;;17.60;52.90;;;;;;5000975;28;20042;-45
2022/07/18 03:46:54;;;;;;;2.35;1.80;;;17.50;52.90;;;;;;5003188;28;20103;-47
2022/07/18 03:49:21;;;;;;;1.95;1.38;;;17.50;53.00;;;;;;5011843;28;20046;-45
2022/07/18 03:51:47;;;;;;;1.73;1.60;;;17.50;52.90;;;;;;4992664;28;20050;-47
2022/07/18 03:54:18;;;;;;;3.35;1.50;;;17.50;52.90;;;;;;5006160;28;20046;-46
2022/07/18 03:56:47;;;;;;;3.97;1.67;;;17.50;53.00;;;;;;5009174;28;20042;-46
2022/07/18 03:59:16;;;;;;;3.88;1.75;;;17.40;53.10;;;;;;5010814;28;20038;-45
2022/07/18 04:01:45;;;;;;;5.60;2.00;;;17.40;53.20;;;;;;5009057;28;20124;-44
2022/07/18 04:04:12;;;;;;;1.80;1.52;;;17.40;53.30;;;;;;5007035;28;20488;-45
2022/07/18 04:06:39;;;;;;;3.03;1.73;;;17.40;53.50;;;;;;5008130;28;20049;-44
2022/07/18 04:09:05;;;;;;;3.75;1.80;;;17.40;53.60;;;;;;5010051;28;20057;-46
2022/07/18 04:11:32;;;;;;;1.45;1.33;;;17.40;53.70;;;;;;5008875;28;20100;-44
2022/07/18 04:13:59;;;;;;;3.00;1.65;;;17.40;53.80;;;;;;5008533;28;20087;-45
2022/07/18 04:16:26;;;;;;;3.85;1.92;;;17.40;54.00;;;;;;5008373;28;20072;-47
2022/07/18 04:18:54;;;;;;;1.88;1.70;;;17.40;54.00;;;;;;5011089;28;20044;-50
2022/07/18 04:21:23;;;;;;;1.83;1.50;;;17.40;54.10;;;;;;5006995;28;20042;-48
2022/07/18 04:23:50;;;;;;;4.30;1.60;;;17.40;54.20;;;;;;5005602;28;20042;-44
2022/07/18 04:26:17;;;;;;;2.25;1.90;;;17.40;54.30;;;;;;5009264;28;20042;-46
2022/07/18 04:28:45;;;;;;;2.40;1.38;;;17.40;54.50;;;;;;5011308;28;20042;-45
2022/07/18 04:31:15;;;;;;;4.15;1.92;;;17.50;54.60;;;;;;5005084;28;20101;-47
2022/07/18 04:33:45;;;;;;;2.15;1.58;;;17.50;54.80;;;;;;5011183;28;20132;-45
2022/07/18 04:36:12;;;;;;;2.35;1.95;;;17.50;54.90;;;;;;5010029;28;20100;-46
2022/07/18 04:38:39;;;;;;;3.15;1.73;;;17.50;55.00;;;;;;5010692;28;20049;-45
2022/07/18 04:41:06;;;;;;;1.77;1.38;;;17.60;55.30;;;;;;5002103;28;20128;-45
2022/07/18 04:43:33;;;;;;;3.55;1.70;;;17.60;55.50;;;;;;5005924;28;20096;-45
2022/07/18 04:46:12;;;;;;;3.55;1.90;;;17.60;55.70;;;;;;5008867;28;20497;-46
2022/07/18 04:48:41;;;;;;;4.13;1.60;;;17.70;56.20;;;;;;5010218;28;20046;-49
2022/07/18 04:51:12;;;;;;;3.40;1.75;;;17.70;55.90;;;;;;5004293;28;20039;-50
2022/07/18 04:53:41;;;;;;;2.47;1.40;;;17.70;56.00;;;;;;5009297;28;20037;-48
2022/07/18 04:56:08;;;;;;;3.28;2.00;;;17.80;56.20;;;;;;5008657;28;20104;-48
2022/07/18 04:58:38;;;;;;;3.38;1.83;;;17.90;56.40;;;;;;5009211;28;20525;-48
2022/07/18 05:01:07;;;;;;;4.95;1.73;;;17.90;56.50;;;;;;5000667;28;20073;-47
2022/07/18 05:03:36;;;;;;;2.72;1.98;;;18.00;57.00;;;;;;5009151;28;20053;-49
2022/07/18 05:06:11;;;;;;;2.00;1.50;;;18.00;56.70;;;;;;5008683;28;20077;-48
2022/07/18 05:08:38;;;;;;;6.18;2.15;;;18.00;56.70;;;;;;5009212;28;20037;-49
2022/07/18 05:11:04;;;;;;;3.15;2.05;;;18.10;57.00;;;;;;5005366;28;20100;-47
2022/07/18 05:13:32;;;;;;;4.13;1.88;;;18.10;57.20;;;;;;5008996;28;20042;-48
2022/07/18 05:15:59;;;;;;;5.93;1.95;;;18.20;57.40;;;;;;5008462;28;20073;-47
2022/07/18 05:18:26;;;;;;;2.75;1.70;;;18.20;57.40;;;;;;5005334;28;20038;-47
2022/07/18 05:20:55;;;;;;;5.20;1.95;;;18.30;57.50;;;;;;4983834;28;20046;-48
2022/07/18 05:23:24;;;;;;;9.27;2.30;;;18.40;57.60;;;;;;5007702;28;20049;-47
2022/07/18 05:25:55;;;;;;;2.78;2.40;;;18.40;57.70;;;;;;5007511;28;20041;-48
2022/07/18 05:28:23;;;;;;;6.80;1.95;;;18.50;57.80;;;;;;5008158;28;20554;-51
2022/07/18 05:30:49;;;;;;;2.00;1.63;;;18.50;57.90;;;;;;5006950;28;20379;-49
2022/07/18 05:33:16;;;;;;;3.85;1.77;;;18.60;57.90;;;;;;5011107;28;20030;-50
2022/07/18 05:35:43;;;;;;;3.47;1.85;;;18.60;58.00;;;;;;5012192;28;20037;-49
2022/07/18 05:38:10;;;;;;;2.35;1.80;;;18.80;58.10;;;;;;5008820;28;20050;-48
2022/07/18 05:40:44;;;;;;;3.15;2.00;;;18.80;58.10;;;;;;5006776;28;20038;-49
2022/07/18 05:43:13;;;;;;;4.00;1.80;;;18.90;57.90;;;;;;5012233;28;20050;-47
2022/07/18 05:45:40;;;;;;;4.80;2.67;;;19.00;57.90;;;;;;5007204;28;20047;-50
2022/07/18 05:48:07;;;;;;;9.27;2.47;;;19.00;57.90;;;;;;5011257;28;20112;-49
2022/07/18 05:50:39;;;;;;;4.05;2.53;;;19.10;57.90;;;;;;5011916;28;20077;-49
2022/07/18 05:53:08;;;;;;;3.92;1.85;;;19.20;58.00;;;;;;5011074;28;20046;-48
2022/07/18 05:55:37;;;;;;;8.05;2.88;;;19.30;58.20;;;;;;5007256;28;20112;-48
2022/07/18 05:58:04;;;;;;;5.05;2.22;;;19.40;57.80;;;;;;5009229;28;20057;-49
2022/07/18 06:00:36;;;;;;;5.15;3.10;;;19.40;57.00;;;;;;5009712;28;20038;-51
2022/07/18 06:03:08;;;;;;;6.35;3.38;;;19.50;56.70;;;;;;5011943;28;20121;-49
2022/07/18 06:05:35;;;;;;;5.28;2.90;;;19.60;56.80;;;;;;5009440;28;20101;-47
2022/07/18 06:08:01;;;;;;;7.00;3.30;;;19.70;56.90;;;;;;5009352;28;20052;-48
2022/07/18 06:10:28;;;;;;;6.28;3.05;;;19.80;56.70;;;;;;5011742;28;20449;-48
2022/07/18 06:12:55;;;;;;;11.23;3.63;;;19.90;57.00;;;;;;5011735;28;20037;-49
2022/07/18 06:15:23;;;;;;;12.23;2.30;;;20.00;56.30;;;;;;5004943;28;20046;-49
2022/07/18 06:17:50;;;;;;;5.43;2.53;;;20.10;55.60;;;;;;5004383;28;20058;-49
2022/07/18 06:20:18;;;;;;;5.75;3.03;;;20.20;54.90;;;;;;5005438;28;20406;-49
2022/07/18 06:22:53;;;;;;;3.90;2.20;;;20.30;54.60;;;;;;5009837;28;20099;-52
2022/07/18 06:25:19;;;;;;;7.43;2.53;;;20.40;54.30;;;;;;5011025;28;20065;-52
2022/07/18 06:27:46;;;;;;;8.77;2.25;;;20.50;53.90;;;;;;5006571;28;20042;-47
2022/07/18 06:30:13;;;;;;;6.63;1.95;;;20.60;53.60;;;;;;5010179;28;20096;-50
2022/07/18 06:32:40;;;;;;;4.57;2.17;;;20.70;53.30;;;;;;4997205;28;20097;-50
2022/07/18 06:35:07;;;;;;;4.93;2.50;;;20.80;53.20;;;;;;5005640;28;20046;-49
2022/07/18 06:37:37;;;;;;;4.72;2.10;;;20.90;52.80;;;;;;5013144;28;20049;-48
2022/07/18 06:40:07;;;;;;;7.22;2.03;;;21.00;52.40;;;;;;5011406;28;20041;-52
2022/07/18 06:42:35;;;;;;;4.35;2.03;;;21.20;52.30;;;;;;5011105;28;20499;-52
2022/07/18 06:45:06;;;;;;;2.90;2.00;;;21.20;52.00;;;;;;4999515;28;20101;-48
2022/07/18 06:47:39;;;;;;;6.80;2.60;;;21.30;51.60;;;;;;5004254;28;20104;-49
2022/07/18 06:50:06;;;;;;;5.97;1.75;;;21.40;51.20;;;;;;5010924;28;20049;-49
2022/07/18 06:52:36;;;;;;;4.32;2.20;;;21.50;51.10;;;;;;5007487;28;20038;-46
2022/07/18 06:55:03;;;;;;;7.45;2.00;;;21.60;50.80;;;;;;5009849;28;20041;-50
2022/07/18 06:57:32;;;;;;;9.75;2.28;;;21.70;50.90;;;;;;5010414;28;20061;-49
2022/07/18 07:00:08;;;;;;;6.82;1.92;;;21.80;50.80;;;;;;5011125;28;20033;-52
2022/07/18 07:02:45;;;;;;;6.63;1.92;;;21.90;50.30;;;;;;5005652;28;20042;-49
2022/07/18 07:05:14;;;;;;;5.05;1.83;;;22.00;49.60;;;;;;5010615;28;20133;-47
2022/07/18 07:07:42;;;;;;;9.48;1.92;;;22.10;49.40;;;;;;5010660;28;20049;-53
2022/07/18 07:10:15;;;;;;;3.30;1.83;;;22.20;49.10;;;;;;5006530;28;20088;-49
2022/07/18 07:12:48;;;;;;;6.88;2.15;;;22.30;49.00;;;;;;5006767;28;20080;-50
2022/07/18 07:15:17;;;;;;;5.80;1.98;;;22.40;48.60;;;;;;5010320;28;20762;-52
2022/07/18 07:17:47;;;;;;;10.18;2.20;;;22.40;48.70;;;;;;5009891;28;20056;-50
2022/07/18 07:20:14;;;;;;;4.10;1.80;;;22.50;48.60;;;;;;5008524;28;20104;-50
2022/07/18 07:22:52;;;;;;;6.90;1.92;;;22.60;48.60;;;;;;5006691;28;20038;-50
2022/07/18 07:25:20;;;;;;;8.30;2.28;;;22.70;48.70;;;;;;5010643;28;20050;-51
2022/07/18 07:27:49;;;;;;;5.88;1.85;;;22.80;48.70;;;;;;5009841;28;20112;-51
2022/07/18 07:30:21;;;;;;;5.93;2.40;;;22.80;48.50;;;;;;5008238;28;20136;-51
2022/07/18 07:32:48;;;;;;;5.50;1.85;;;22.90;48.70;;;;;;5007204;28;20040;-50
2022/07/18 07:35:19;;;;;;;7.47;1.63;;;23.00;48.50;;;;;;5009889;28;20482;-49
2022/07/18 07:37:54;;;;;;;8.48;3.35;;;23.00;48.20;;;;;;5010351;28;20046;-50
2022/07/18 07:40:25;;;;;;;6.43;1.65;;;23.10;48.10;;;;;;5007268;28;20038;-50
2022/07/18 07:43:05;;;;;;;5.47;1.80;;;23.20;47.90;;;;;;5008584;28;20050;-51
2022/07/18 07:45:35;;;;;;;6.00;1.75;;;23.30;47.70;;;;;;5004484;28;20037;-50
2022/07/18 07:48:02;;;;;;;10.00;2.65;;;23.40;47.30;;;;;;5006472;28;20594;-50
2022/07/18 07:50:29;;;;;;;5.93;1.55;;;23.40;47.40;;;;;;5005138;28;20041;-51
2022/07/18 07:52:57;;;;;;;9.77;1.92;;;23.60;47.30;;;;;;5009472;28;20088;-53
2022/07/18 07:55:29;;;;;;;7.72;2.00;;;23.70;46.60;;;;;;5010441;28;20050;-52
2022/07/18 07:57:56;;;;;;;6.40;2.13;;;23.70;46.10;;;;;;5008495;28;20034;-50
2022/07/18 08:00:26;;;;;;;4.22;1.50;;;23.80;46.20;;;;;;5010479;28;20560;-53
2022/07/18 08:02:55;;;;;;;5.22;1.60;;;23.90;46.20;;;;;;5009932;28;20041;-54
2022/07/18 08:05:30;;;;;;;3.75;1.50;;;24.00;45.60;;;;;;5040215;22;20013;-46
2022/07/18 08:08:01;;;;;;;4.35;1.85;;;24.00;45.50;;;;;;5006023;28;20045;-46
2022/07/18 08:10:32;;;;;;;5.50;1.23;;;24.10;45.10;;;;;;5006678;28;20209;-47
2022/07/18 08:13:13;;;;;;;2.80;1.52;;;24.20;45.00;;;;;;5001696;28;20065;-52
2022/07/18 08:15:41;;;;;;;6.25;1.90;;;24.30;45.00;;;;;;5009352;28;20057;-49
2022/07/18 08:18:08;;;;;;;8.80;2.00;;;24.40;44.20;;;;;;4999313;28;20755;-51
2022/07/18 08:20:35;;;;;;;3.53;1.63;;;24.50;44.40;;;;;;5001800;28;20038;-47
2022/07/18 08:23:08;;;;;;;5.00;1.63;;;24.60;44.20;;;;;;5009675;28;20057;-48
2022/07/18 08:25:42;;;;;;;2.75;1.58;;;24.70;44.00;;;;;;4984879;28;20038;-48
2022/07/18 08:28:12;;;;;;;3.28;1.60;;;24.80;42.50;;;;;;4985371;28;20069;-49
2022/07/18 08:30:46;;;;;;;7.80;1.77;;;24.80;43.00;;;;;;4998458;28;20398;-50
2022/07/18 08:33:16;;;;;;;4.45;1.30;;;24.90;43.10;;;;;;5009119;28;20045;-48
2022/07/18 08:35:43;;;;;;;2.20;1.35;;;25.00;42.80;;;;;;5001267;28;20038;-50
2022/07/18 08:38:11;;;;;;;2.08;1.27;;;25.10;42.10;;;;;;4995103;28;20042;-50
2022/07/18 08:40:38;;;;;;;2.35;1.23;;;25.20;42.30;;;;;;5002345;28;20116;-51
2022/07/18 08:43:05;;;;;;;7.15;2.00;;;25.30;42.90;;;;;;5010048;28;20123;-48
2022/07/18 08:45:56;;;;;;;2.08;1.15;;;25.40;42.50;;;;;;4983505;28;20062;-49
2022/07/18 08:48:29;;;;;;;3.92;1.45;;;25.50;40.60;;;;;;4990628;28;20070;-50
2022/07/18 08:50:59;;;;;;;2.63;1.55;;;25.60;40.30;;;;;;5007810;28;20048;-51
2022/07/18 08:53:28;;;;;;;3.65;1.10;;;25.80;40.30;;;;;;5009643;28;20446;-48
2022/07/18 08:55:55;;;;;;;3.50;1.25;;;25.80;39.70;;;;;;4995387;28;20058;-51
2022/07/18 08:58:24;;;;;;;1.48;0.98;;;25.90;39.80;;;;;;5001538;28;20109;-49
2022/07/18 09:01:10;;;;;;;1.58;1.10;;;26.10;39.90;;;;;;5010817;28;20069;-51
2022/07/18 09:03:40;;;;;;;3.90;1.27;;;26.20;39.60;;;;;;4998199;28;20070;-48
2022/07/18 09:06:12;;;;;;;6.20;1.17;;;26.30;39.10;;;;;;4994351;28;20074;-47
2022/07/18 09:08:59;;;;;;;1.30;1.10;;;26.40;38.60;;;;;;5011827;28;20056;-49
2022/07/18 09:11:28;;;;;;;1.95;1.17;;;26.50;38.20;;;;;;5014251;28;20057;-48
2022/07/18 09:14:30;;;;;;;2.28;1.00;;;26.70;38.00;;;;;;4991232;28;20038;-52
2022/07/18 09:17:28;;;;;;;1.75;1.30;;;26.90;37.60;;;;;;5002469;28;20042;-53
2022/07/18 09:20:04;;;;;;;4.13;1.08;;;27.00;37.00;;;;;;4978174;28;20089;-49
2022/07/18 09:22:34;;;;;;;2.63;1.10;;;27.20;36.40;;;;;;4996131;28;20041;-48
2022/07/18 09:25:04;;;;;;;2.00;0.95;;;27.20;37.10;;;;;;4997583;28;20038;-52
2022/07/18 09:27:42;;;;;;;1.58;1.10;;;27.40;36.40;;;;;;5004986;28;20038;-48
2022/07/18 09:30:18;;;;;;;1.98;0.93;;;27.40;35.20;;;;;;4996723;28;20049;-48
2022/07/18 09:33:05;;;;;;;1.50;0.90;;;27.60;35.00;;;;;;4994661;28;20045;-46
2022/07/18 09:35:44;;;;;;;0.80;0.80;;;27.60;35.20;;;;;;5002353;28;20042;-47
2022/07/18 09:38:13;;;;;;;2.65;1.30;;;27.80;34.30;;;;;;5012499;28;20490;-50
2022/07/18 09:40:49;;;;;;;1.42;1.10;;;27.90;34.60;;;;;;5013810;28;20064;-48
2022/07/18 09:43:20;;;;;;;3.20;1.08;;;27.90;34.30;;;;;;4976994;28;20042;-48
2022/07/18 09:45:49;;;;;;;1.73;1.05;;;28.10;33.60;;;;;;4992199;28;20050;-47
2022/07/18 09:48:25;;;;;;;2.85;1.38;;;28.10;33.90;;;;;;5002988;28;20053;-47
2022/07/18 09:50:55;;;;;;;2.45;0.80;;;28.20;32.80;;;;;;5010192;28;20755;-47
2022/07/18 09:53:24;;;;;;;2.88;1.23;;;28.40;33.20;;;;;;5003443;28;20042;-48
2022/07/18 09:56:02;;;;;;;1.88;0.90;;;28.40;32.80;;;;;;4989943;28;20101;-45
2022/07/18 09:58:34;;;;;;;1.67;0.85;;;28.50;33.30;;;;;;4994317;28;20511;-45
2022/07/18 10:01:03;;;;;;;5.03;1.45;;;28.60;32.90;;;;;;4995581;28;20093;-46
2022/07/18 10:03:34;;;;;;;1.70;0.95;;;28.70;33.40;;;;;;5006811;28;20125;-45
2022/07/18 10:06:02;;;;;;;4.90;1.08;;;28.80;32.80;;;;;;5011051;28;20060;-50
2022/07/18 10:08:39;;;;;;;2.20;1.02;;;28.90;32.80;;;;;;5002105;28;20042;-46
2022/07/18 10:11:07;;;;;;;3.00;1.25;;;29.00;34.00;;;;;;5007146;28;20034;-50
2022/07/18 10:13:36;;;;;;;6.15;1.35;;;29.10;33.30;;;;;;5002309;28;20046;-44
2022/07/18 10:16:10;;;;;;;2.97;1.00;;;29.20;32.40;;;;;;4993130;28;20076;-51
2022/07/18 10:18:39;;;;;;;2.53;1.08;;;29.30;32.60;;;;;;4999324;28;20042;-51
2022/07/18 10:21:13;;;;;;;4.72;1.38;;;29.30;32.00;;;;;;4998310;28;20046;-48
2022/07/18 10:23:43;;;;;;;2.42;1.33;;;29.40;32.00;;;;;;5003860;28;20449;-49
2022/07/18 10:26:25;;;;;;;1.60;0.93;;;29.50;33.00;;;;;;5006900;28;20705;-49
2022/07/18 10:29:00;;;;;;;1.50;1.23;;;29.60;32.80;;;;;;4988868;28;20042;-50
2022/07/18 10:31:30;;;;;;;3.05;1.00;;;29.60;32.20;;;;;;5006696;28;20507;-47
2022/07/18 10:34:06;;;;;;;1.77;1.17;;;29.70;32.40;;;;;;4991450;28;20056;-51
2022/07/18 10:36:54;;;;;;;3.63;1.00;;;29.80;32.00;;;;;;4991549;28;20046;-46
2022/07/18 10:39:42;;;;;;;3.13;1.40;;;29.90;32.30;;;;;;4986751;28;20045;-53
2022/07/18 10:42:09;;;;;;;5.78;1.15;;;30.00;32.30;;;;;;5002877;28;20046;-47
2022/07/18 10:44:41;;;;;;;4.20;1.38;;;30.00;32.30;;;;;;5002355;28;20049;-51
2022/07/18 10:47:20;;;;;;;3.20;1.02;;;30.10;32.00;;;;;;4992815;28;20073;-50
2022/07/18 10:49:47;;;;;;;5.57;1.13;;;30.20;31.50;;;;;;4996501;28;20118;-47
2022/07/18 10:57:44;;;;;;;1.92;0.80;;;30.40;30.90;;;;;;4981063;28;20034;-47
2022/07/18 11:00:32;;;;;;;1.33;0.68;;;30.40;31.00;;;;;;5001741;28;20046;-52
2022/07/18 11:03:10;;;;;;;2.50;1.23;;;30.50;31.30;;;;;;5008776;28;20049;-50
2022/07/18 11:05:43;;;;;;;4.85;1.80;;;30.60;30.50;;;;;;4998177;28;20047;-48
2022/07/18 11:08:13;;;;;;;1.52;1.13;;;30.70;30.90;;;;;;5002463;28;20054;-50
2022/07/18 11:10:44;;;;;;;2.50;0.90;;;30.70;30.50;;;;;;5003134;28;20510;-49
2022/07/18 11:13:30;;;;;;;2.00;1.23;;;30.80;30.50;;;;;;5003008;28;20042;-47
2022/07/18 11:16:07;;;;;;;1.77;0.95;;;31.00;30.40;;;;;;4978576;28;20410;-49
2022/07/18 11:18:40;;;;;;;3.80;1.00;;;31.00;30.60;;;;;;5004682;28;20042;-51
2022/07/18 11:21:23;;;;;;;2.90;1.27;;;31.10;30.00;;;;;;5010512;28;20046;-50
2022/07/18 11:23:58;;;;;;;1.95;1.02;;;31.10;30.00;;;;;;5011337;28;20503;-46
2022/07/18 11:26:29;;;;;;;0.93;0.90;;;31.20;29.50;;;;;;4988330;28;20502;-53
2022/07/18 11:28:59;;;;;;;1.67;1.23;;;31.30;29.90;;;;;;4999154;28;20057;-51
2022/07/18 11:31:29;;;;;;;2.17;1.40;;;31.30;29.50;;;;;;5011799;28;20049;-49
2022/07/18 11:33:59;;;;;;;3.88;1.15;;;31.40;29.30;;;;;;4993344;28;20400;-50
2022/07/18 11:36:31;;;;;;;1.83;1.17;;;31.40;29.10;;;;;;4990952;28;20597;-49
2022/07/18 11:39:02;;;;;;;3.30;1.17;;;31.50;29.00;;;;;;4986229;28;20063;-53
2022/07/18 11:41:33;;;;;;;2.25;1.27;;;31.60;29.10;;;;;;4981377;28;20047;-53
2022/07/18 11:44:02;;;;;;;4.20;1.42;;;31.60;29.20;;;;;;4986835;28;20142;-49
2022/07/18 11:46:31;;;;;;;2.38;1.27;;;31.70;29.50;;;;;;5001175;28;20038;-47
2022/07/18 11:49:01;;;;;;;0.88;0.80;;;31.80;29.40;;;;;;5007945;28;20053;-49
2022/07/18 11:51:45;;;;;;;1.35;1.05;;;31.90;29.50;;;;;;5009342;28;20569;-48
2022/07/18 11:54:25;;;;;;;2.40;1.10;;;31.90;29.00;;;;;;4995183;28;20125;-48
2022/07/18 11:56:53;;;;;;;2.33;1.13;;;32.10;28.90;;;;;;4995482;28;20061;-53
2022/07/18 11:59:22;;;;;;;3.80;1.30;;;32.20;29.20;;;;;;4979416;28;20748;-49
2022/07/18 12:01:52;;;;;;;1.83;1.30;;;32.30;29.10;;;;;;4990855;28;20388;-49
2022/07/18 12:04:23;;;;;;;4.32;1.40;;;32.40;28.80;;;;;;4995499;28;20525;-50
2022/07/18 12:07:12;;;;;;;2.33;1.20;;;32.50;28.70;;;;;;5006590;28;20413;-49
2022/07/18 12:09:41;;;;;;;3.30;1.48;;;32.70;28.50;;;;;;4983336;28;20100;-47
2022/07/18 12:12:19;;;;;;;2.97;1.17;;;32.70;28.30;;;;;;4989011;28;20046;-47
2022/07/18 12:15:03;;;;;;;4.10;1.70;;;32.80;28.30;;;;;;4999121;28;20137;-48
2022/07/18 12:17:50;;;;;;;5.38;1.40;;;32.90;28.30;;;;;;5000515;28;20054;-50
2022/07/18 12:20:20;;;;;;;1.30;1.20;;;33.00;28.30;;;;;;4981586;28;20088;-46
2022/07/18 12:23:11;;;;;;;2.40;0.98;;;33.00;28.10;;;;;;4987807;28;20565;-47
2022/07/18 12:25:43;;;;;;;1.85;1.10;;;33.10;28.10;;;;;;4990024;28;20046;-48
2022/07/18 12:28:18;;;;;;;1.08;1.00;;;33.20;27.90;;;;;;4981197;28;20043;-52
2022/07/18 12:30:45;;;;;;;3.53;1.45;;;33.30;27.40;;;;;;4983884;28;20491;-46
2022/07/18 12:33:22;;;;;;;5.40;1.25;;;33.40;27.90;;;;;;4992262;28;20491;-47
2022/07/18 12:36:00;;;;;;;3.40;1.20;;;33.50;27.90;;;;;;4985218;28;20070;-52
2022/07/18 12:38:27;;;;;;;2.33;1.48;;;33.50;27.70;;;;;;4980170;28;20047;-46
2022/07/18 12:40:55;;;;;;;2.67;1.42;;;33.60;27.70;;;;;;4981782;28;20081;-50
2022/07/18 12:43:28;;;;;;;4.38;1.50;;;33.70;27.50;;;;;;5007071;28;20038;-50
2022/07/18 12:45:59;;;;;;;1.60;1.50;;;33.80;27.30;;;;;;5011826;28;20120;-47
2022/07/18 12:48:37;;;;;;;1.97;1.13;;;33.90;27.70;;;;;;5000042;28;20421;-50
2022/07/18 12:51:08;;;;;;;2.00;1.55;;;33.90;27.30;;;;;;4999178;28;20108;-53
2022/07/18 12:53:43;;;;;;;1.55;1.42;;;34.00;27.10;;;;;;5000962;28;20097;-52
2022/07/18 12:56:11;;;;;;;2.05;1.30;;;34.10;27.40;;;;;;4985744;28;20050;-47
2022/07/18 12:58:39;;;;;;;2.38;1.10;;;34.20;27.00;;;;;;4987274;28;20061;-46
2022/07/18 13:01:06;;;;;;;4.90;1.20;;;34.30;27.10;;;;;;4998690;28;20039;-48
2022/07/18 13:03:35;;;;;;;2.25;1.20;;;34.40;26.80;;;;;;4989272;28;20134;-50
2022/07/18 13:06:03;;;;;;;1.90;1.08;;;34.40;26.90;;;;;;4989459;28;20042;-48
2022/07/18 13:08:29;;;;;;;1.95;1.60;;;34.50;27.00;;;;;;4992638;28;20042;-50
2022/07/18 13:10:59;;;;;;;0.98;0.85;;;34.60;26.90;;;;;;5006460;28;20046;-46
2022/07/18 13:13:26;;;;;;;2.53;1.50;;;34.80;27.00;;;;;;5006823;28;20120;-53